KGGG/GGG METAR and TAF weather

Enter ICAO airport designator
Station Type Date Time Source
KGGG METAR 2022/06/27 16:53 UTC NOAA

KGGG 271653Z 04006G14KT 10SM FEW028 31/21 A3015 RMK AO2 SLP200 T03110206


Station Type Date Time Source
KGGG Decoded METAR 2022/06/27 16:53 UTC NOAA

LONGVIEW GREGG COUNTY AIRPORT , TX, United States (KGGG) 32-23N 094-43W 107M
Jun 27, 2022 - 12:53 PM EDT / 2022.06.27 1653 UTC
Wind: from the NE (040 degrees) at 7 MPH (6 KT) gusting to 16 MPH (14 KT):0
Visibility: 10 mile(s):0
Sky conditions: mostly clear
Temperature: 88.0 F (31.1 C)
Dew Point: 69.1 F (20.6 C)
Relative Humidity: 53%
Pressure (altimeter): 30.15 in. Hg (1020 hPa)
ob: KGGG 271653Z 04006G14KT 10SM FEW028 31/21 A3015 RMK AO2 SLP200 T03110206
cycle: 17

Station Type Date Time Source
KGGG TAF 2022/06/27 18:22 UTC NOAA

TAF KGGG 271720Z 2718/2818 04009G18KT P6SM FEW028
FM280400 07005KT P6SM FEW250
FM281400 05008KT P6SM SKC

Example: see airport list